• Join FlightAware (Why Join?)
  • Login
  • US Flag 
11:25AM EDT


 

Airport Tracker/Info


-or-


 

Live Flight TrackerFlight Track Log ✈ TAM3893 ✈ 05-May-2013 ✈ SBSN / STM - SBBE / BEL

Flight Track Log - Related Links

Times and Time Zones

All times are in EDT time to prevent confusion due to time zone crossing. See the TAM3893 flight status page for this flight to view local times or setup timezone preferences in your user account.

Time Position Orientation Groundspeed Altitude Reporting Facility
EDT Latitude Longitude Course Direction KTS MPH feet Rate Location/Type
06:31AM -2.0671 -52.6241 81° East  Level Estimated
06:32AM -2.0522 -52.5338 81° East  Level Estimated
06:33AM -2.0373 -52.4435 81° East  Level Estimated
06:34AM -2.0225 -52.3531 81° East  Level Estimated
06:35AM -2.0076 -52.2628 81° East  Level Estimated
06:36AM -1.9927 -52.1725 81° East  Level Estimated
06:37AM -1.9778 -52.0821 81° East  Level Estimated
06:38AM -1.9629 -51.9918 81° East  Level Estimated
06:39AM -1.9480 -51.9015 81° East  Level Estimated
06:40AM -1.9331 -51.8112 81° East  Level Estimated
06:41AM -1.9181 -51.7209 81° East  Level Estimated
06:42AM -1.9032 -51.6305 81° East  Level Estimated
06:43AM -1.8883 -51.5402 81° East  Level Estimated
06:44AM -1.8734 -51.4499 81° East  Level Estimated
06:45AM -1.8584 -51.3596 81° East  Level Estimated
06:46AM -1.8435 -51.2692 81° East  Level Estimated
06:47AM -1.8285 -51.1789 81° East  Level Estimated
06:48AM -1.8136 -51.0886 81° East  Level Estimated
06:49AM -1.7986 -50.9983 81° East  Level Estimated
06:50AM -1.7837 -50.9080 81° East  Level Estimated
06:51AM -1.7687 -50.8177 81° East  Level Estimated
06:52AM -1.7537 -50.7274 81° East  Level Estimated
06:53AM -1.7388 -50.6371 81° East  Level Estimated
06:54AM -1.7238 -50.5468 81° East  Level Estimated
06:55AM -1.7088 -50.4565 81° East  Level Estimated
06:56AM -1.6938 -50.3662 81° East  Level Estimated
06:57AM -1.6788 -50.2759 81° East  Level Estimated
06:58AM -1.6638 -50.1856 81° East  Level Estimated
06:59AM -1.6488 -50.0953 81° East  Level Estimated
07:00AM -1.6338 -50.0050 81° East  Level Estimated
07:01AM -1.6188 -49.9147 81° East  Level Estimated
07:02AM -1.6038 -49.8244 81° East  Level Estimated
07:03AM -1.5888 -49.7341 81° East  Level Estimated
07:04AM -1.5738 -49.6438 81° East  Level Estimated
07:05AM -1.5588 -49.5535 81° East  Level Estimated
07:06AM -1.5438 -49.4632 81° East  Level Estimated
07:07AM -1.5287 -49.3730 81° East  Level Estimated
07:08AM -1.5137 -49.2827 81° East  Level Estimated
07:09AM -1.4986 -49.1924 81° East  Level Estimated
07:10AM -1.4836 -49.1021 81° East  Level Estimated
07:11AM -1.4686 -49.0118 81° East  Level Estimated
07:12AM -1.4535 -48.9216 81° East  Level Estimated
07:13AM -1.4385 -48.8313 81° East  Level Estimated
07:14AM -1.4234 -48.7410 81° East  Level Estimated
07:15AM -1.4083 -48.6507 81° East  Level Estimated
07:16AM -1.3933 -48.5604 81° East  Level Estimated
07:17AM -1.3793 -48.4763 81° East  Level Estimated
07:18AM -1.3793 -48.4763 270° West  Level Estimated
07:19AM -1.3793 -48.4763 270° West  Level Estimated
07:20AM -1.3793 -48.4763 270° West  Level Estimated
07:21AM -1.3793 -48.4763 270° West  Level Estimated
07:22AM -1.3793 -48.4763 270° West  Level Estimated
07:23AM -1.3793 -48.4763 270° West  Level Estimated
07:24AM -1.3793 -48.4763 270° West  Level Estimated
07:25AM -1.3793 -48.4763 270° West  Level Estimated
07:26AM -1.3793 -48.4763 270° West  Level Estimated
07:27AM -1.3793 -48.4763 270° West  Level Estimated
07:28AM -1.3793 -48.4763 270° West  Level Estimated
07:29AM -1.3793 -48.4763 270° West  Level Estimated
07:30AM -1.3793 -48.4763 270° West  Level Estimated
07:31AM -1.3793 -48.4763 270° West  Level Estimated